Time;durP1;ratioP1;P1;durP2;ratioP2;P2;SDS_P1;SDS_P2;PMS_P1;PMS_P2;Temp;Humidity;BMP_temperature;BMP_pressure;BME280_temperature;BME280_humidity;BME280_pressure;Samples;Min_cycle;Max_cycle;Signal;HPM_P1;HPM_P2
2022/05/18 00:00:31;;;;;;;;;;;;;;;15.67;76.03;95154.22;5114750;28;984;-48
2022/05/18 00:02:59;;;;;;;;;;;;;;;15.80;75.39;95154.38;5114922;28;1918;-48
2022/05/18 00:05:25;;;;;;;;;;;;;;;15.85;75.00;95146.56;5104771;28;1152;-48
2022/05/18 00:07:51;;;;;;;;;;;;;;;15.74;75.74;95147.06;5094638;28;976;-48
2022/05/18 00:10:18;;;;;;;;;;;;;;;15.54;76.32;95138.78;5094565;28;1019;-48
2022/05/18 00:12:45;;;;;;;;;;;;;;;15.57;76.47;95133.00;5093950;28;1110;-48
2022/05/18 00:15:11;;;;;;;;;;;;;;;15.78;75.83;95127.66;5094444;28;969;-48
2022/05/18 00:17:37;;;;;;;;;;;;;;;15.81;75.99;95124.53;5094095;28;1036;-48
2022/05/18 00:20:04;;;;;;;;;;;;;;;15.91;75.03;95110.72;5094315;28;956;-48
2022/05/18 00:22:30;;;;;;;;;;;;;;;16.03;74.36;95115.59;5093734;28;1934;-48
2022/05/18 00:24:58;;;;;;;;;;;;;;;15.85;75.16;95124.16;5093918;28;976;-48
2022/05/18 00:27:25;;;;;;;;;;;;;;;15.52;75.71;95121.97;5093822;28;1088;-48
2022/05/18 00:29:51;;;;;;;;;;;;;;;15.35;76.53;95121.38;5094052;28;1007;-48
2022/05/18 00:32:17;;;;;;;;;;;;;;;15.35;76.75;95114.13;5093647;28;1024;-48
2022/05/18 00:34:43;;;;;;;;;;;;;;;15.47;75.69;95116.31;5094003;28;1017;-48
2022/05/18 00:37:09;;;;;;;;;;;;;;;15.50;75.41;95114.09;5093775;28;1022;-48
2022/05/18 00:39:35;;;;;;;;;;;;;;;15.50;75.72;95115.91;5093981;28;1034;-48
2022/05/18 00:42:01;;;;;;;;;;;;;;;15.45;75.46;95105.72;5093355;28;1981;-48
2022/05/18 00:44:27;;;;;;;;;;;;;;;15.43;75.82;95111.31;5093817;28;957;-48
2022/05/18 00:46:53;;;;;;;;;;;;;;;15.38;75.84;95112.91;5093783;28;1039;-48
2022/05/18 00:49:19;;;;;;;;;;;;;;;15.25;76.48;95110.91;5093955;28;1202;-48
2022/05/18 00:51:48;;;;;;;;;;;;;;;15.18;75.92;95113.53;5093662;28;1055;-48
2022/05/18 00:54:19;;;;;;;;;;;;;;;15.13;75.83;95120.53;5093672;28;977;-48
2022/05/18 00:56:50;;;;;;;;;;;;;;;14.94;76.86;95116.56;5093481;28;945;-48
2022/05/18 00:59:42;;;;;;;;;;;;;;;15.02;76.67;95117.31;5093439;28;1036;-48
2022/05/18 01:02:09;;;;;;;;;;;;;;;14.91;76.71;95119.63;5090449;28;1996;-48
2022/05/18 01:04:37;;;;;;;;;;;;;;;14.63;76.83;95112.25;5096009;28;1216;-48
2022/05/18 01:07:06;;;;;;;;;;;;;;;14.66;77.36;95119.94;5113549;28;1080;-48
2022/05/18 01:09:35;;;;;;;;;;;;;;;14.71;77.65;95127.47;5114274;28;1039;-48
2022/05/18 01:12:02;;;;;;;;;;;;;;;14.83;77.65;95126.81;5113548;28;1300;-48
2022/05/18 01:14:30;;;;;;;;;;;;;;;14.88;77.64;95120.84;5113517;28;1028;-48
2022/05/18 01:16:56;;;;;;;;;;;;;;;14.90;76.63;95121.50;5113691;28;1034;-48
2022/05/18 01:19:35;;;;;;;;;;;;;;;14.64;76.32;95122.00;5117572;28;1315;-48
2022/05/18 01:22:10;;;;;;;;;;;;;;;14.57;76.01;95126.44;5117953;28;1909;-48
2022/05/18 01:24:43;;;;;;;;;;;;;;;14.50;76.12;95129.03;5117842;28;1044;-48
2022/05/18 01:27:09;;;;;;;;;;;;;;;14.49;76.08;95132.72;5117852;28;1026;-48
2022/05/18 01:29:35;;;;;;;;;;;;;;;14.50;76.31;95131.72;5117904;28;1056;-48
2022/05/18 01:32:03;;;;;;;;;;;;;;;14.44;75.90;95137.84;5117541;28;1016;-48
2022/05/18 01:34:31;;;;;;;;;;;;;;;14.28;76.64;95130.78;5117887;28;1064;-48
2022/05/18 01:36:57;;;;;;;;;;;;;;;14.33;76.70;95124.84;5117716;28;988;-48
2022/05/18 01:39:36;;;;;;;;;;;;;;;14.47;76.23;95129.38;5117496;28;1215;-48
2022/05/18 01:42:08;;;;;;;;;;;;;;;14.43;77.16;95136.16;5117130;27;1918;-48
2022/05/18 01:44:35;;;;;;;;;;;;;;;14.48;77.53;95141.00;5117379;28;1055;-48
2022/05/18 01:47:01;;;;;;;;;;;;;;;14.52;77.68;95140.44;5117261;27;1054;-48
2022/05/18 01:49:27;;;;;;;;;;;;;;;14.55;77.17;95134.69;5117241;28;1183;-48
2022/05/18 01:51:55;;;;;;;;;;;;;;;14.56;77.07;95135.53;5117438;27;973;-48
2022/05/18 01:54:21;;;;;;;;;;;;;;;14.49;77.57;95134.59;5117187;28;1071;-48
2022/05/18 01:56:48;;;;;;;;;;;;;;;14.43;77.84;95136.16;5117274;28;1945;-48
2022/05/18 01:59:14;;;;;;;;;;;;;;;14.34;77.76;95129.19;5117002;28;1123;-48
2022/05/18 02:01:40;;;;;;;;;;;;;;;14.09;78.31;95139.38;5117033;28;1905;-48
2022/05/18 02:04:07;;;;;;;;;;;;;;;14.09;78.06;95131.31;5116971;28;1012;-48
2022/05/18 02:06:33;;;;;;;;;;;;;;;14.16;78.46;95129.56;5097783;28;1161;-48
2022/05/18 02:09:00;;;;;;;;;;;;;;;14.23;77.92;95138.56;5096451;28;1086;-48
2022/05/18 02:11:26;;;;;;;;;;;;;;;14.10;77.49;95133.00;5096560;28;1145;-48
2022/05/18 02:13:52;;;;;;;;;;;;;;;13.94;78.03;95136.66;5096483;28;953;-48
2022/05/18 02:16:19;;;;;;;;;;;;;;;13.92;77.61;95141.38;5096456;28;1095;-48
2022/05/18 02:18:45;;;;;;;;;;;;;;;13.87;77.93;95141.94;5095015;28;1036;-48
2022/05/18 02:21:12;;;;;;;;;;;;;;;13.97;77.67;95130.94;5096424;28;1075;-48
2022/05/18 02:23:39;;;;;;;;;;;;;;;13.92;77.06;95139.53;5095814;28;1989;-48
2022/05/18 02:26:09;;;;;;;;;;;;;;;13.59;77.74;95134.44;5096422;28;1017;-49
2022/05/18 02:28:35;;;;;;;;;;;;;;;13.50;78.41;95134.69;5095833;28;1017;-48
2022/05/18 02:31:01;;;;;;;;;;;;;;;13.59;77.88;95133.59;5096389;28;1035;-48
2022/05/18 02:33:27;;;;;;;;;;;;;;;13.63;77.82;95134.91;5096142;28;1030;-48
2022/05/18 02:35:53;;;;;;;;;;;;;;;13.65;77.81;95127.50;5096314;28;999;-48
2022/05/18 02:38:19;;;;;;;;;;;;;;;13.62;78.04;95133.22;5096030;28;1013;-48
2022/05/18 02:40:45;;;;;;;;;;;;;;;13.64;77.72;95129.38;5095773;28;1243;-48
2022/05/18 02:43:12;;;;;;;;;;;;;;;13.65;77.94;95130.19;5095694;28;1992;-48
2022/05/18 02:45:38;;;;;;;;;;;;;;;13.60;78.05;95128.06;5096148;28;1047;-48
2022/05/18 02:48:05;;;;;;;;;;;;;;;13.48;78.75;95129.50;5095899;28;1074;-48
2022/05/18 02:50:33;;;;;;;;;;;;;;;13.43;79.00;95131.88;5095934;28;964;-48
2022/05/18 02:52:59;;;;;;;;;;;;;;;13.33;79.03;95125.91;5095665;28;1095;-48
2022/05/18 02:58:10;;;;;;;;;;;;;;;13.51;78.45;95128.28;5095720;28;1035;-49
2022/05/18 03:00:36;;;;;;;;;;;;;;;13.48;78.93;95127.63;5095861;28;1067;-48
2022/05/18 03:03:02;;;;;;;;;;;;;;;13.53;79.05;95132.47;5095678;28;1905;-48
2022/05/18 03:05:29;;;;;;;;;;;;;;;13.69;78.23;95133.34;5105874;28;1224;-48
2022/05/18 03:07:57;;;;;;;;;;;;;;;13.32;77.73;95132.28;5116460;27;995;-48
2022/05/18 03:10:23;;;;;;;;;;;;;;;13.39;78.24;95128.72;5115839;28;1020;-48
2022/05/18 03:12:49;;;;;;;;;;;;;;;13.49;78.79;95128.50;5116004;28;959;-48
2022/05/18 03:15:15;;;;;;;;;;;;;;;13.52;78.98;95133.47;5115932;28;955;-48
2022/05/18 03:17:41;;;;;;;;;;;;;;;13.62;78.69;95142.16;5115759;28;1019;-48
2022/05/18 03:20:08;;;;;;;;;;;;;;;13.62;79.03;95141.28;5115353;28;1023;-48
2022/05/18 03:25:21;;;;;;;;;;;;;;;13.79;78.90;95137.47;5115452;28;961;-48
2022/05/18 03:27:47;;;;;;;;;;;;;;;13.61;77.60;95142.31;5115714;28;1047;-48
2022/05/18 03:30:14;;;;;;;;;;;;;;;13.47;77.96;95141.25;5115453;28;957;-48
2022/05/18 03:32:40;;;;;;;;;;;;;;;13.48;79.16;95148.28;5115507;28;1180;-48
2022/05/18 03:35:07;;;;;;;;;;;;;;;13.62;78.96;95149.34;5115775;28;979;-48
2022/05/18 03:37:33;;;;;;;;;;;;;;;13.74;79.34;95155.16;5115199;28;1040;-48
2022/05/18 03:39:59;;;;;;;;;;;;;;;13.94;78.82;95159.00;5115077;28;1043;-48
2022/05/18 03:42:26;;;;;;;;;;;;;;;14.01;78.11;95167.19;5114678;28;1991;-48
2022/05/18 03:44:52;;;;;;;;;;;;;;;13.74;77.94;95174.78;5115117;28;992;-48
2022/05/18 03:47:18;;;;;;;;;;;;;;;13.77;78.64;95179.81;5115110;28;1866;-48
2022/05/18 03:49:44;;;;;;;;;;;;;;;14.00;78.80;95178.94;5114889;28;1055;-48
2022/05/18 03:52:11;;;;;;;;;;;;;;;14.07;78.42;95179.88;5115265;28;1186;-48
2022/05/18 03:54:37;;;;;;;;;;;;;;;13.80;79.27;95184.81;5114477;28;1040;-48
2022/05/18 03:57:03;;;;;;;;;;;;;;;13.86;79.55;95189.47;5115224;28;980;-48
2022/05/18 03:59:29;;;;;;;;;;;;;;;14.13;79.18;95184.53;5114762;28;1026;-48
2022/05/18 04:01:55;;;;;;;;;;;;;;;14.29;79.64;95188.94;5114861;28;1997;-48
2022/05/18 04:04:21;;;;;;;;;;;;;;;14.44;79.79;95186.25;5114219;28;1161;-48
2022/05/18 04:06:48;;;;;;;;;;;;;;;14.51;80.39;95186.34;5094629;28;1003;-48
2022/05/18 04:09:14;;;;;;;;;;;;;;;14.52;79.20;95179.97;5094530;28;1035;-48
2022/05/18 04:11:40;;;;;;;;;;;;;;;14.73;78.98;95179.25;5094380;28;972;-48
2022/05/18 04:14:06;;;;;;;;;;;;;;;14.94;79.28;95183.88;5094241;28;1027;-48
2022/05/18 04:16:32;;;;;;;;;;;;;;;14.94;80.39;95190.09;5094046;28;1024;-48
2022/05/18 04:18:58;;;;;;;;;;;;;;;14.76;80.48;95195.00;5094242;28;1000;-48
2022/05/18 04:21:24;;;;;;;;;;;;;;;14.80;80.82;95193.63;5093712;28;1860;-48
2022/05/18 04:23:50;;;;;;;;;;;;;;;15.10;79.91;95189.06;5094058;28;1914;-48
2022/05/18 04:26:16;;;;;;;;;;;;;;;15.35;79.81;95196.81;5094143;28;1043;-48
2022/05/18 04:28:42;;;;;;;;;;;;;;;15.46;78.89;95184.69;5094057;28;995;-48
2022/05/18 04:31:08;;;;;;;;;;;;;;;15.80;77.96;95195.69;5093910;28;1012;-48
2022/05/18 04:33:34;;;;;;;;;;;;;;;16.16;76.30;95194.75;5093853;28;1048;-48
2022/05/18 04:36:02;;;;;;;;;;;;;;;16.31;74.80;95193.81;5093560;28;1020;-48
2022/05/18 04:38:29;;;;;;;;;;;;;;;16.54;75.38;95194.44;5093979;28;995;-48
2022/05/18 04:40:55;;;;;;;;;;;;;;;16.30;75.07;95197.56;5093611;28;1247;-48
2022/05/18 04:43:22;;;;;;;;;;;;;;;16.15;76.30;95198.47;5093545;28;2015;-48
2022/05/18 04:45:51;;;;;;;;;;;;;;;16.09;77.15;95199.25;5093710;28;1050;-48
2022/05/18 04:48:18;;;;;;;;;;;;;;;16.02;77.03;95201.06;5093687;28;1024;-48
2022/05/18 04:50:45;;;;;;;;;;;;;;;15.90;78.40;95197.22;5093344;28;1968;-48
2022/05/18 04:53:11;;;;;;;;;;;;;;;15.89;78.31;95200.94;5093097;28;1041;-48
2022/05/18 04:55:37;;;;;;;;;;;;;;;15.91;78.56;95190.78;5093269;28;1200;-48
2022/05/18 04:58:03;;;;;;;;;;;;;;;15.88;78.31;95188.47;5093752;28;1018;-48
2022/05/18 05:00:30;;;;;;;;;;;;;;;16.01;79.58;95191.28;5093259;28;1275;-48
2022/05/18 05:02:57;;;;;;;;;;;;;;;16.38;77.71;95192.84;5093533;28;1970;-48
2022/05/18 05:05:25;;;;;;;;;;;;;;;16.28;78.34;95207.72;5102368;28;1153;-48
2022/05/18 05:07:51;;;;;;;;;;;;;;;16.20;79.46;95209.53;5114050;28;967;-48
2022/05/18 05:10:18;;;;;;;;;;;;;;;16.27;79.44;95208.72;5113897;28;1023;-48
2022/05/18 05:12:45;;;;;;;;;;;;;;;16.38;78.93;95208.19;5113571;28;888;-48
2022/05/18 05:15:12;;;;;;;;;;;;;;;16.59;78.34;95208.13;5114140;28;956;-48
2022/05/18 05:17:38;;;;;;;;;;;;;;;16.38;79.95;95216.28;5113672;28;1062;-47
2022/05/18 05:20:05;;;;;;;;;;;;;;;16.32;80.31;95219.78;5113535;28;957;-48
2022/05/18 05:22:31;;;;;;;;;;;;;;;16.33;79.11;95224.13;5113439;28;1902;-48
2022/05/18 05:24:57;;;;;;;;;;;;;;;16.33;79.90;95216.03;5113436;28;1102;-48
2022/05/18 05:27:24;;;;;;;;;;;;;;;16.20;79.26;95217.63;5113368;28;972;-48
2022/05/18 05:29:50;;;;;;;;;;;;;;;16.29;78.99;95215.59;5113700;28;1028;-48
2022/05/18 05:32:16;;;;;;;;;;;;;;;16.47;78.23;95217.81;5113407;28;1036;-48
2022/05/18 05:34:42;;;;;;;;;;;;;;;16.61;78.18;95209.81;5113394;28;1044;-48
2022/05/18 05:37:08;;;;;;;;;;;;;;;16.64;78.48;95217.50;5113320;28;1986;-48
2022/05/18 05:39:35;;;;;;;;;;;;;;;16.91;76.89;95215.88;5113735;28;1040;-48
2022/05/18 05:42:01;;;;;;;;;;;;;;;17.05;77.88;95219.47;5112899;28;1984;-48
2022/05/18 05:44:27;;;;;;;;;;;;;;;17.00;76.11;95230.03;5113672;28;967;-48
2022/05/18 05:46:53;;;;;;;;;;;;;;;17.18;76.41;95233.88;5113234;28;1025;-48
2022/05/18 05:49:20;;;;;;;;;;;;;;;17.96;72.78;95230.00;5113384;28;965;-48
2022/05/18 05:51:46;;;;;;;;;;;;;;;17.96;73.42;95230.00;5113329;28;1039;-48
2022/05/18 05:54:12;;;;;;;;;;;;;;;17.76;74.45;95233.47;5113357;28;1083;-48
2022/05/18 05:56:38;;;;;;;;;;;;;;;17.58;73.68;95235.09;5113274;28;1034;-48
2022/05/18 05:59:04;;;;;;;;;;;;;;;17.79;74.23;95234.94;5113369;28;1055;-48
2022/05/18 06:01:30;;;;;;;;;;;;;;;17.98;74.06;95243.34;5113113;28;969;-48
2022/05/18 06:03:56;;;;;;;;;;;;;;;17.92;70.53;95239.59;5114510;28;1910;-48
2022/05/18 06:06:22;;;;;;;;;;;;;;;17.79;73.56;95248.47;5099448;28;1153;-48
2022/05/18 06:08:50;;;;;;;;;;;;;;;17.73;74.70;95247.41;5097013;28;1044;-48
2022/05/18 06:11:17;;;;;;;;;;;;;;;17.67;74.71;95252.78;5096390;28;1087;-48
2022/05/18 06:13:43;;;;;;;;;;;;;;;17.49;76.80;95250.63;5096620;28;1007;-48
2022/05/18 06:16:10;;;;;;;;;;;;;;;17.26;76.51;95259.06;5096624;28;972;-48
2022/05/18 06:18:36;;;;;;;;;;;;;;;16.91;78.31;95262.59;5096365;28;1020;-48
2022/05/18 06:21:02;;;;;;;;;;;;;;;16.76;81.11;95273.47;5096362;28;1091;-48
2022/05/18 06:23:29;;;;;;;;;;;;;;;16.75;81.89;95279.91;5095892;28;1902;-48
2022/05/18 06:26:02;;;;;;;;;;;;;;;16.68;81.32;95272.81;5096179;28;1747;-48
2022/05/18 06:28:28;;;;;;;;;;;;;;;16.72;82.38;95288.41;5096431;28;1022;-48
2022/05/18 06:30:54;;;;;;;;;;;;;;;16.71;81.76;95280.50;5096295;28;1023;-48
2022/05/18 06:33:20;;;;;;;;;;;;;;;16.68;82.81;95280.91;5095940;28;1083;-48
2022/05/18 06:35:47;;;;;;;;;;;;;;;16.81;82.56;95290.94;5096064;28;1191;-48
2022/05/18 06:38:14;;;;;;;;;;;;;;;17.03;80.82;95291.75;5096205;28;1022;-48
2022/05/18 06:43:26;;;;;;;;;;;;;;;16.95;81.55;95292.75;5095916;28;1914;-48
2022/05/18 06:45:53;;;;;;;;;;;;;;;16.92;80.66;95295.84;5096185;28;965;-48
2022/05/18 06:48:19;;;;;;;;;;;;;;;16.97;82.41;95299.63;5096045;28;988;-48
2022/05/18 06:50:45;;;;;;;;;;;;;;;16.91;82.55;95305.81;5096086;28;1023;-48
2022/05/18 06:53:11;;;;;;;;;;;;;;;16.96;81.81;95302.53;5095785;28;1074;-48
2022/05/18 06:55:37;;;;;;;;;;;;;;;17.05;80.58;95297.81;5095422;28;1978;-48
2022/05/18 06:58:03;;;;;;;;;;;;;;;17.04;80.77;95304.25;5095546;28;1024;-48
2022/05/18 07:00:29;;;;;;;;;;;;;;;17.01;81.92;95299.22;5095547;28;1040;-48
2022/05/18 07:02:55;;;;;;;;;;;;;;;17.06;83.30;95304.88;5095403;28;1986;-48
2022/05/18 07:05:22;;;;;;;;;;;;;;;17.07;81.10;95317.34;5103232;28;1217;-48
2022/05/18 07:07:48;;;;;;;;;;;;;;;17.22;81.68;95318.06;5115931;28;1062;-48
2022/05/18 07:10:14;;;;;;;;;;;;;;;17.16;79.29;95316.16;5115811;28;1011;-48
2022/05/18 07:12:40;;;;;;;;;;;;;;;17.03;81.00;95310.66;5115930;28;995;-48
2022/05/18 07:15:06;;;;;;;;;;;;;;;17.14;80.07;95313.66;5115279;28;995;-48
2022/05/18 07:17:33;;;;;;;;;;;;;;;17.04;81.74;95315.88;5115306;28;1099;-48
2022/05/18 07:19:59;;;;;;;;;;;;;;;16.94;83.52;95318.94;5115843;28;985;-48
2022/05/18 07:22:25;;;;;;;;;;;;;;;16.84;83.04;95318.41;5115661;28;1913;-48
2022/05/18 07:24:52;;;;;;;;;;;;;;;16.75;83.20;95317.72;5115719;28;1043;-48
2022/05/18 07:27:18;;;;;;;;;;;;;;;16.77;84.44;95325.63;5115638;28;1053;-48
2022/05/18 07:29:44;;;;;;;;;;;;;;;16.94;83.80;95328.88;5115327;28;1060;-48
2022/05/18 07:32:13;;;;;;;;;;;;;;;17.12;84.45;95334.63;5115735;28;1027;-48
2022/05/18 07:34:40;;;;;;;;;;;;;;;17.04;83.63;95329.38;5115558;28;983;-48
2022/05/18 07:37:06;;;;;;;;;;;;;;;17.01;82.77;95334.34;5115315;27;1959;-48
2022/05/18 07:39:32;;;;;;;;;;;;;;;16.92;82.31;95336.34;5114128;28;1011;-48
2022/05/18 07:41:59;;;;;;;;;;;;;;;16.94;81.92;95339.69;5115000;28;1913;-48
2022/05/18 07:44:25;;;;;;;;;;;;;;;16.98;83.11;95341.81;5114912;28;1044;-48
2022/05/18 07:46:52;;;;;;;;;;;;;;;17.04;82.73;95339.38;5115569;27;961;-48
2022/05/18 07:49:18;;;;;;;;;;;;;;;17.06;82.07;95348.09;5114969;28;1048;-48
2022/05/18 07:51:44;;;;;;;;;;;;;;;17.19;81.87;95337.38;5115135;28;1058;-48
2022/05/18 07:54:11;;;;;;;;;;;;;;;17.21;82.85;95345.31;5114765;28;949;-48
2022/05/18 07:56:38;;;;;;;;;;;;;;;17.13;83.56;95343.56;5114806;28;1032;-48
2022/05/18 07:59:05;;;;;;;;;;;;;;;17.06;84.00;95345.41;5114677;28;1080;-48
2022/05/18 08:01:31;;;;;;;;;;;;;;;17.04;83.65;95339.38;5114809;28;1883;-48
2022/05/18 08:03:57;;;;;;;;;;;;;;;17.05;83.66;95347.25;5114717;28;1902;-48
2022/05/18 08:06:23;;;;;;;;;;;;;;;17.03;82.37;95343.09;5096976;28;1209;-48
2022/05/18 08:08:50;;;;;;;;;;;;;;;17.04;83.49;95347.47;5094508;28;1023;-48
2022/05/18 08:16:47;;;;;;;;;;;;;;;16.77;87.59;95361.56;5094215;28;1012;-48
2022/05/18 08:19:15;;;;;;;;;;;;;;;16.75;88.46;95360.91;5094130;28;960;-48
2022/05/18 08:21:41;;;;;;;;;;;;;;;16.76;87.86;95364.44;5094412;28;1056;-48
2022/05/18 08:24:07;;;;;;;;;;;;;;;16.73;89.20;95371.06;5093591;28;2165;-48
2022/05/18 08:26:33;;;;;;;;;;;;;;;16.71;89.91;95378.53;5094025;28;995;-48
2022/05/18 08:29:00;;;;;;;;;;;;;;;16.61;89.72;95382.59;5094118;28;1201;-48
2022/05/18 08:31:26;;;;;;;;;;;;;;;16.67;90.09;95384.50;5094201;28;1043;-48
2022/05/18 08:33:53;;;;;;;;;;;;;;;16.88;88.21;95375.56;5094100;28;999;-48
2022/05/18 08:36:19;;;;;;;;;;;;;;;17.07;87.71;95379.47;5093935;28;1023;-48
2022/05/18 08:38:46;;;;;;;;;;;;;;;17.32;87.46;95378.00;5093854;28;1190;-48
2022/05/18 08:41:14;;;;;;;;;;;;;;;17.64;84.13;95375.72;5093418;28;1943;-48
2022/05/18 08:43:42;;;;;;;;;;;;;;;17.84;82.69;95370.44;5093725;28;1910;-48
2022/05/18 08:46:26;;;;;;;;;;;;;;;18.09;82.80;95370.72;5093889;28;960;-47
2022/05/18 08:48:52;;;;;;;;;;;;;;;18.19;82.85;95370.34;5093835;28;952;-47
2022/05/18 08:51:38;;;;;;;;;;;;;;;18.38;83.75;95357.91;5093621;28;968;-48
2022/05/18 08:54:12;;;;;;;;;;;;;;;18.47;83.31;95362.09;5093100;28;1050;-48
2022/05/18 08:56:40;;;;;;;;;;;;;;;18.63;82.07;95360.88;5093673;28;1051;-48
2022/05/18 08:59:10;;;;;;;;;;;;;;;18.85;81.54;95361.56;5093360;28;1028;-48
2022/05/18 09:01:40;;;;;;;;;;;;;;;19.05;80.30;95352.63;5093715;28;1035;-47
2022/05/18 09:04:11;;;;;;;;;;;;;;;19.10;80.94;95350.94;5093543;28;1977;-47
2022/05/18 09:06:42;;;;;;;;;;;;;;;19.07;80.54;95342.41;5113280;28;1162;-47
2022/05/18 09:11:56;;;;;;;;;;;;;;;19.04;80.27;95346.34;5113761;28;1874;-47
2022/05/18 09:14:23;;;;;;;;;;;;;;;19.26;79.96;95352.38;5113699;28;1011;-48
2022/05/18 09:16:58;;;;;;;;;;;;;;;19.40;77.95;95353.19;5112492;28;1036;-47
2022/05/18 09:19:31;;;;;;;;;;;;;;;19.53;80.10;95348.78;5113534;28;1032;-48
2022/05/18 09:22:03;;;;;;;;;;;;;;;19.67;79.22;95353.13;5113705;28;1917;-48
2022/05/18 09:24:32;;;;;;;;;;;;;;;19.73;78.91;95348.75;5113100;28;952;-47
2022/05/18 09:27:23;;;;;;;;;;;;;;;20.14;78.26;95342.13;5113902;28;961;-47
2022/05/18 09:30:08;;;;;;;;;;;;;;;20.73;76.34;95340.97;5113459;28;1075;-47
2022/05/18 09:32:46;;;;;;;;;;;;;;;21.54;74.44;95346.59;5113770;28;959;-47
2022/05/18 09:35:24;;;;;;;;;;;;;;;21.19;74.06;95352.53;5113299;28;1247;-47
2022/05/18 09:38:04;;;;;;;;;;;;;;;21.09;73.61;95354.94;5113809;28;967;-47
2022/05/18 09:40:33;;;;;;;;;;;;;;;21.45;72.49;95351.50;5117245;28;1131;-48
2022/05/18 09:43:06;;;;;;;;;;;;;;;21.16;70.27;95347.56;5117549;28;1993;-48
2022/05/18 09:45:34;;;;;;;;;;;;;;;20.80;71.98;95336.31;5117517;28;980;-47
2022/05/18 09:48:03;;;;;;;;;;;;;;;20.90;72.45;95343.16;5117504;28;1016;-48
2022/05/18 09:50:29;;;;;;;;;;;;;;;20.63;73.17;95340.63;5117417;28;971;-47
2022/05/18 09:52:56;;;;;;;;;;;;;;;20.31;73.41;95332.44;5117372;28;1091;-48
2022/05/18 09:55:23;;;;;;;;;;;;;;;20.04;72.41;95324.44;5116890;28;1020;-48
2022/05/18 09:57:57;;;;;;;;;;;;;;;19.85;75.15;95325.34;5117394;28;987;-48
2022/05/18 10:00:24;;;;;;;;;;;;;;;19.76;76.17;95318.50;5117251;28;1043;-47
2022/05/18 10:08:22;;;;;;;;;;;;;;;19.93;76.75;95321.56;5096688;28;1205;-48
2022/05/18 10:10:54;;;;;;;;;;;;;;;20.64;73.58;95315.13;5096415;28;985;-48
2022/05/18 10:13:23;;;;;;;;;;;;;;;20.60;71.57;95309.31;5095643;28;1020;-48
2022/05/18 10:15:58;;;;;;;;;;;;;;;20.36;72.87;95310.91;5096677;28;1029;-48
2022/05/18 10:18:27;;;;;;;;;;;;;;;20.22;72.10;95310.16;5096504;28;960;-48
2022/05/18 10:21:09;;;;;;;;;;;;;;;20.11;75.38;95321.69;5096638;28;1043;-48
2022/05/18 10:23:40;;;;;;;;;;;;;;;20.13;75.27;95321.47;5096205;28;1985;-48
2022/05/18 10:26:12;;;;;;;;;;;;;;;20.34;74.95;95323.03;5096429;28;976;-48
2022/05/18 10:28:40;;;;;;;;;;;;;;;20.93;73.45;95324.53;5096218;28;1052;-48
2022/05/18 10:31:07;;;;;;;;;;;;;;;21.63;68.70;95318.88;5096382;28;964;-48
2022/05/18 10:33:33;;;;;;;;;;;;;;;21.80;69.96;95319.09;5096108;28;1869;-48
2022/05/18 10:36:09;;;;;;;;;;;;;;;22.14;69.06;95315.94;5096000;28;1031;-48
2022/05/18 10:38:35;;;;;;;;;;;;;;;21.89;67.31;95314.16;5096228;28;968;-48
2022/05/18 10:41:04;;;;;;;;;;;;;;;21.80;64.25;95310.13;5095879;28;1128;-48
2022/05/18 10:43:35;;;;;;;;;;;;;;;21.60;64.63;95315.75;5095993;28;2005;-48
2022/05/18 10:46:09;;;;;;;;;;;;;;;22.10;63.89;95321.06;5096159;28;930;-48
2022/05/18 10:48:35;;;;;;;;;;;;;;;22.47;63.59;95314.72;5096171;28;957;-48
2022/05/18 10:51:04;;;;;;;;;;;;;;;22.58;60.19;95319.38;5094626;28;1076;-48
2022/05/18 10:53:32;;;;;;;;;;;;;;;22.59;62.67;95310.97;5095794;28;967;-48
2022/05/18 10:56:03;;;;;;;;;;;;;;;22.74;60.38;95315.97;5095641;28;1956;-48
2022/05/18 10:58:41;;;;;;;;;;;;;;;22.90;61.08;95313.66;5096225;28;980;-48
2022/05/18 11:01:07;;;;;;;;;;;;;;;22.56;59.78;95318.78;5095524;28;1102;-48
2022/05/18 11:03:48;;;;;;;;;;;;;;;22.20;59.24;95320.50;5095514;28;1995;-48
2022/05/18 11:06:20;;;;;;;;;;;;;;;21.84;59.17;95328.47;5112122;28;1137;-48
2022/05/18 11:08:47;;;;;;;;;;;;;;;21.73;59.15;95328.41;5115956;28;1003;-48
2022/05/18 11:11:13;;;;;;;;;;;;;;;21.72;58.99;95327.56;5115719;28;941;-48
2022/05/18 11:13:46;;;;;;;;;;;;;;;21.72;58.51;95321.28;5115692;28;1294;-48
2022/05/18 11:16:20;;;;;;;;;;;;;;;22.05;59.27;95315.44;5115622;28;1052;-48
2022/05/18 11:18:58;;;;;;;;;;;;;;;22.70;57.70;95330.31;5115665;28;1016;-48
2022/05/18 11:21:24;;;;;;;;;;;;;;;22.79;57.34;95327.00;5115537;28;981;-48
2022/05/18 11:23:51;;;;;;;;;;;;;;;22.64;57.68;95336.69;5115556;28;1996;-53
2022/05/18 11:26:33;;;;;;;;;;;;;;;22.40;57.32;95331.13;5115635;28;1027;-48
2022/05/18 11:28:59;;;;;;;;;;;;;;;22.01;56.25;95334.13;5115840;28;1015;-48
2022/05/18 11:31:25;;;;;;;;;;;;;;;21.80;55.33;95340.03;5115233;28;1051;-48
2022/05/18 11:34:12;;;;;;;;;;;;;;;21.82;55.59;95337.94;5115562;28;1039;-48
2022/05/18 11:36:38;;;;;;;;;;;;;;;21.94;57.44;95341.53;5114871;28;1879;-48
2022/05/18 11:39:04;;;;;;;;;;;;;;;22.37;56.40;95343.34;5115494;28;1105;-48
2022/05/18 11:41:47;;;;;;;;;;;;;;;22.31;55.01;95341.53;5115020;28;1088;-48
2022/05/18 11:44:13;;;;;;;;;;;;;;;21.93;54.81;95355.38;5115232;28;1905;-48
2022/05/18 11:46:43;;;;;;;;;;;;;;;21.73;55.15;95358.34;5115252;28;1043;-48
2022/05/18 11:49:27;;;;;;;;;;;;;;;21.64;56.12;95372.25;5115456;28;1059;-48
2022/05/18 11:51:53;;;;;;;;;;;;;;;21.59;56.26;95373.97;5115183;28;1026;-48
2022/05/18 11:54:25;;;;;;;;;;;;;;;21.60;56.96;95392.78;5114922;28;1173;-48
2022/05/18 11:57:11;;;;;;;;;;;;;;;21.69;56.43;95396.03;5115055;28;1094;-48
2022/05/18 12:00:00;;;;;;;;;;;;;;;21.92;54.97;95392.66;5115187;28;1217;-48
2022/05/18 12:02:26;;;;;;;;;;;;;;;21.71;55.73;95385.75;5114152;28;1910;-48
2022/05/18 12:05:01;;;;;;;;;;;;;;;21.86;55.79;95387.31;5110075;28;1291;-48
2022/05/18 12:07:37;;;;;;;;;;;;;;;22.03;56.50;95388.34;5094390;28;999;-47
2022/05/18 12:10:15;;;;;;;;;;;;;;;21.77;55.70;95392.19;5094335;28;1075;-48
2022/05/18 12:13:01;;;;;;;;;;;;;;;21.44;56.53;95385.19;5094255;28;1036;-48
2022/05/18 12:15:33;;;;;;;;;;;;;;;21.08;55.75;95392.16;5094057;28;1093;-48
2022/05/18 12:18:05;;;;;;;;;;;;;;;20.69;56.26;95387.81;5094057;28;1851;-48
2022/05/18 12:20:36;;;;;;;;;;;;;;;20.56;57.96;95381.38;5094142;28;1035;-48
2022/05/18 12:23:05;;;;;;;;;;;;;;;20.83;57.99;95386.66;5094217;28;1910;-48
2022/05/18 12:25:32;;;;;;;;;;;;;;;21.36;56.53;95393.59;5094179;28;939;-48
2022/05/18 12:28:00;;;;;;;;;;;;;;;21.67;56.21;95390.00;5094019;28;1020;-48
2022/05/18 12:30:27;;;;;;;;;;;;;;;21.48;56.09;95380.97;5093972;28;1059;-48
2022/05/18 12:32:54;;;;;;;;;;;;;;;21.43;55.09;95387.03;5093770;28;952;-48
2022/05/18 12:35:41;;;;;;;;;;;;;;;21.49;54.58;95390.78;5094288;28;1055;-48
2022/05/18 12:38:08;;;;;;;;;;;;;;;21.43;53.89;95386.22;5083527;28;1614;-48
2022/05/18 12:40:34;;;;;;;;;;;;;;;21.17;54.12;95385.41;5093635;28;1161;-48
2022/05/18 12:43:03;;;;;;;;;;;;;;;20.97;54.81;95382.81;5093840;28;1918;-48
2022/05/18 12:45:37;;;;;;;;;;;;;;;20.91;55.72;95380.16;5093760;28;1072;-48
2022/05/18 12:48:15;;;;;;;;;;;;;;;21.07;54.89;95387.75;5093837;28;1059;-48
2022/05/18 12:50:49;;;;;;;;;;;;;;;21.04;54.86;95390.94;5093915;28;976;-49
2022/05/18 12:53:21;;;;;;;;;;;;;;;20.92;55.03;95389.97;5093708;28;988;-48
2022/05/18 12:55:54;;;;;;;;;;;;;;;20.79;55.50;95390.88;5093572;28;1130;-48
2022/05/18 12:58:28;;;;;;;;;;;;;;;20.73;56.34;95395.31;5093715;28;960;-48
2022/05/18 13:01:08;;;;;;;;;;;;;;;20.71;55.37;95396.59;5093856;28;1060;-48
2022/05/18 13:03:37;;;;;;;;;;;;;;;20.68;55.01;95403.31;5093192;28;1987;-48
2022/05/18 13:06:10;;;;;;;;;;;;;;;20.58;55.65;95392.88;5108145;28;1212;-48
2022/05/18 13:08:37;;;;;;;;;;;;;;;20.60;54.37;95400.81;5113851;27;1031;-48
2022/05/18 13:11:09;;;;;;;;;;;;;;;20.72;53.89;95396.38;5114080;28;1027;-48
2022/05/18 13:14:01;;;;;;;;;;;;;;;20.84;53.07;95402.75;5112738;28;1012;-48
2022/05/18 13:16:37;;;;;;;;;;;;;;;21.02;53.91;95402.03;5111667;28;1199;-48
2022/05/18 13:19:19;;;;;;;;;;;;;;;21.10;52.47;95408.25;5113458;28;1011;-48
2022/05/18 13:21:47;;;;;;;;;;;;;;;21.10;52.13;95400.09;5113533;28;1118;-48
2022/05/18 13:24:18;;;;;;;;;;;;;;;21.06;51.45;95391.56;5113370;28;1992;-48
2022/05/18 13:26:46;;;;;;;;;;;;;;;21.31;52.12;95394.28;5113873;28;1067;-49
2022/05/18 13:29:22;;;;;;;;;;;;;;;21.51;51.28;95398.72;5113423;28;1052;-48